Time;durP1;ratioP1;P1;durP2;ratioP2;P2;SDS_P1;SDS_P2;PMS_P1;PMS_P2;Temp;Humidity;BMP_temperature;BMP_pressure;BME280_temperature;BME280_humidity;BME280_pressure;Samples;Min_cycle;Max_cycle;Signal;HPM_P1;HPM_P2
2022/02/27 00:00:50;;;;;;;13.10;6.57;;;1.80;1.00;;;;;;5126475;27;20222;-83
2022/02/27 00:03:16;;;;;;;9.85;7.53;;;1.70;1.00;;;;;;5115794;27;20214;-83
2022/02/27 00:05:43;;;;;;;11.48;7.25;;;1.70;1.00;;;;;;5112341;27;20281;-84
2022/02/27 00:08:10;;;;;;;11.75;7.25;;;1.70;1.00;;;;;;5099421;27;20744;-83
2022/02/27 00:10:37;;;;;;;13.32;7.70;;;1.60;1.00;;;;;;5113607;27;20227;-84
2022/02/27 00:13:05;;;;;;;9.65;6.80;;;1.60;1.00;;;;;;5109135;27;20215;-83
2022/02/27 00:15:32;;;;;;;16.60;7.47;;;1.60;1.00;;;;;;5111987;27;20297;-84
2022/02/27 00:17:59;;;;;;;10.05;7.13;;;1.60;1.00;;;;;;5112630;27;20243;-83
2022/02/27 00:20:26;;;;;;;9.27;7.95;;;1.60;1.00;;;;;;5112053;27;20229;-84
2022/02/27 00:22:53;;;;;;;13.13;7.63;;;1.60;1.00;;;;;;5112686;27;20228;-84
2022/02/27 00:25:20;;;;;;;11.60;7.90;;;1.60;1.00;;;;;;5099694;27;20230;-83
2022/02/27 00:27:46;;;;;;;14.80;8.50;;;1.60;1.00;;;;;;5119362;27;21097;-84
2022/02/27 00:30:14;;;;;;;13.57;7.72;;;1.50;1.00;;;;;;5098072;27;20231;-83
2022/02/27 00:32:41;;;;;;;12.02;7.50;;;1.50;1.00;;;;;;5118190;27;20727;-82
2022/02/27 00:35:09;;;;;;;11.40;7.97;;;1.50;1.00;;;;;;5123364;27;20219;-81
2022/02/27 00:37:36;;;;;;;12.05;7.57;;;1.50;1.00;;;;;;5118443;27;20232;-82
2022/02/27 00:40:04;;;;;;;15.68;9.85;;;1.50;1.00;;;;;;5119612;27;21095;-83
2022/02/27 00:42:30;;;;;;;11.73;8.73;;;1.50;1.00;;;;;;5104222;27;20222;-82
2022/02/27 00:44:58;;;;;;;9.90;6.97;;;1.40;1.00;;;;;;5121239;27;20223;-83
2022/02/27 00:47:26;;;;;;;10.20;8.10;;;1.50;1.00;;;;;;5097410;27;20223;-82
2022/02/27 00:49:52;;;;;;;12.57;8.07;;;1.50;1.00;;;;;;5110088;27;20211;-82
2022/02/27 00:52:22;;;;;;;11.15;7.80;;;1.50;1.00;;;;;;5116972;27;21168;-83
2022/02/27 00:54:49;;;;;;;11.98;7.88;;;1.50;1.00;;;;;;5118800;27;20276;-83
2022/02/27 00:57:16;;;;;;;12.05;8.63;;;1.50;1.00;;;;;;5101696;27;20336;-83
2022/02/27 00:59:44;;;;;;;10.05;8.52;;;1.40;1.00;;;;;;5138237;27;20220;-83
2022/02/27 01:02:10;;;;;;;11.50;8.07;;;1.40;1.00;;;;;;5121438;27;20225;-82
2022/02/27 01:04:39;;;;;;;12.15;8.50;;;1.30;1.00;;;;;;5126292;27;20219;-82
2022/02/27 01:07:06;;;;;;;10.60;9.07;;;1.30;1.00;;;;;;5114898;27;20219;-83
2022/02/27 01:09:33;;;;;;;14.75;9.05;;;1.30;1.00;;;;;;5114846;27;20223;-84
2022/02/27 01:12:00;;;;;;;13.90;8.73;;;1.30;1.00;;;;;;5115450;27;20223;-83
2022/02/27 01:14:27;;;;;;;18.95;8.35;;;1.30;1.00;;;;;;5110813;27;20227;-84
2022/02/27 01:16:53;;;;;;;13.02;7.88;;;1.20;1.00;;;;;;5116179;27;20232;-83
2022/02/27 01:19:23;;;;;;;12.65;8.63;;;1.20;1.00;;;;;;5108948;27;20224;-82
2022/02/27 01:21:51;;;;;;;13.25;8.77;;;1.20;1.00;;;;;;5113925;27;21104;-83
2022/02/27 01:24:18;;;;;;;14.00;9.25;;;1.20;1.00;;;;;;5111910;27;20230;-82
2022/02/27 01:26:45;;;;;;;10.93;8.73;;;1.20;1.00;;;;;;5124449;27;20215;-81
2022/02/27 01:29:12;;;;;;;14.27;10.20;;;1.20;1.00;;;;;;5123812;27;20231;-83
2022/02/27 01:31:38;;;;;;;11.18;7.85;;;1.20;1.00;;;;;;5119221;27;20228;-82
2022/02/27 01:34:05;;;;;;;14.23;9.82;;;1.10;1.00;;;;;;5117213;27;20230;-83
2022/02/27 01:36:32;;;;;;;11.27;9.70;;;1.10;1.00;;;;;;5094361;27;20314;-83
2022/02/27 01:39:00;;;;;;;11.18;8.50;;;1.10;1.00;;;;;;5113541;27;20247;-83
2022/02/27 01:41:27;;;;;;;14.40;10.02;;;1.00;1.00;;;;;;5113414;27;20242;-83
2022/02/27 01:43:53;;;;;;;11.88;9.05;;;1.00;1.00;;;;;;5118445;27;20698;-82
2022/02/27 01:46:20;;;;;;;13.27;9.27;;;1.00;1.00;;;;;;5107303;27;20234;-83
2022/02/27 01:48:47;;;;;;;13.43;9.65;;;1.00;1.00;;;;;;5109840;27;20223;-84
2022/02/27 01:51:15;;;;;;;17.08;9.00;;;0.90;1.00;;;;;;5106388;27;20306;-83
2022/02/27 01:53:42;;;;;;;16.10;9.50;;;0.90;1.00;;;;;;5106829;27;20223;-83
2022/02/27 01:56:10;;;;;;;12.95;9.25;;;1.00;1.00;;;;;;5108249;27;20304;-83
2022/02/27 01:58:37;;;;;;;12.63;7.97;;;1.00;1.00;;;;;;5095969;27;20322;-83
2022/02/27 02:01:04;;;;;;;12.95;8.40;;;1.00;1.00;;;;;;5110247;27;20219;-84
2022/02/27 02:03:30;;;;;;;10.90;7.90;;;1.00;1.00;;;;;;5111629;27;20240;-85
2022/02/27 02:05:57;;;;;;;13.13;8.20;;;1.00;1.00;;;;;;5110035;27;20305;-83
2022/02/27 02:08:24;;;;;;;10.32;7.88;;;1.00;1.00;;;;;;5115598;27;20771;-83
2022/02/27 02:10:50;;;;;;;14.07;8.27;;;1.00;1.00;;;;;;5112956;27;20319;-84
2022/02/27 02:13:18;;;;;;;11.95;8.95;;;1.10;1.00;;;;;;5111569;27;21373;-85
2022/02/27 02:15:45;;;;;;;13.65;8.43;;;1.00;1.00;;;;;;5118061;27;20267;-82
2022/02/27 02:18:13;;;;;;;13.35;9.15;;;1.00;1.00;;;;;;5113500;27;20224;-83
2022/02/27 02:20:41;;;;;;;12.10;9.68;;;0.90;1.00;;;;;;5112155;27;20223;-83
2022/02/27 02:23:07;;;;;;;12.25;9.15;;;0.80;1.00;;;;;;5111280;27;20314;-83
2022/02/27 02:25:34;;;;;;;13.50;8.13;;;0.90;1.00;;;;;;5108051;27;20225;-84
2022/02/27 02:28:01;;;;;;;12.60;9.75;;;0.90;1.00;;;;;;5114094;27;20956;-84
2022/02/27 02:30:27;;;;;;;12.60;8.70;;;0.90;1.00;;;;;;5113605;27;20223;-83
2022/02/27 02:32:56;;;;;;;11.70;8.90;;;0.90;1.00;;;;;;5114999;27;21709;-84
2022/02/27 02:35:24;;;;;;;12.00;8.90;;;0.80;1.00;;;;;;5115673;27;20273;-84
2022/02/27 02:37:52;;;;;;;13.38;8.77;;;0.90;1.00;;;;;;5110143;27;20262;-84
2022/02/27 02:40:21;;;;;;;15.82;10.13;;;0.80;1.00;;;;;;5112295;27;21505;-83
2022/02/27 02:42:48;;;;;;;14.15;8.45;;;0.80;1.00;;;;;;5103688;27;20222;-84
2022/02/27 02:45:15;;;;;;;8.55;7.63;;;0.80;1.00;;;;;;5117103;27;20226;-84
2022/02/27 02:47:43;;;;;;;12.73;9.13;;;0.80;1.00;;;;;;5113762;27;20222;-84
2022/02/27 02:50:11;;;;;;;12.68;8.85;;;0.80;1.00;;;;;;5092701;27;20273;-82
2022/02/27 02:52:38;;;;;;;10.38;9.10;;;0.80;1.00;;;;;;5118342;27;20274;-83
2022/02/27 02:55:09;;;;;;;14.98;9.85;;;0.80;1.00;;;;;;5113058;27;20311;-84
2022/02/27 02:57:36;;;;;;;10.88;8.40;;;0.70;1.00;;;;;;5119598;27;20230;-83
2022/02/27 03:00:03;;;;;;;12.85;8.60;;;0.70;1.00;;;;;;5147300;27;20250;-84
2022/02/27 03:02:30;;;;;;;12.13;9.00;;;0.80;1.00;;;;;;5156227;27;20199;-82
2022/02/27 03:04:58;;;;;;;13.50;8.30;;;0.80;1.00;;;;;;5144103;27;20223;-82
2022/02/27 03:07:25;;;;;;;11.15;7.75;;;0.80;1.00;;;;;;5119150;27;20307;-83
2022/02/27 03:09:52;;;;;;;14.13;8.00;;;0.80;1.00;;;;;;5117318;27;20253;-83
2022/02/27 03:12:20;;;;;;;17.35;9.07;;;0.80;1.00;;;;;;5107098;27;20231;-84
2022/02/27 03:14:46;;;;;;;12.52;8.73;;;0.80;1.00;;;;;;5114124;27;20219;-83
2022/02/27 03:17:13;;;;;;;11.70;7.43;;;0.80;1.00;;;;;;5116336;27;20591;-82
2022/02/27 03:19:40;;;;;;;11.80;7.78;;;0.80;1.00;;;;;;5121336;27;20215;-82
2022/02/27 03:22:07;;;;;;;17.10;10.80;;;0.80;1.00;;;;;;5127244;27;20266;-82
2022/02/27 03:24:34;;;;;;;14.40;9.27;;;0.70;1.00;;;;;;5111657;27;20223;-82
2022/02/27 03:27:00;;;;;;;10.20;7.82;;;0.70;1.00;;;;;;5130113;27;20275;-82
2022/02/27 03:29:28;;;;;;;10.18;9.18;;;0.70;1.00;;;;;;5130956;27;20262;-82
2022/02/27 03:31:55;;;;;;;9.95;7.35;;;0.70;1.00;;;;;;5135008;27;20976;-82
2022/02/27 03:34:22;;;;;;;12.05;8.10;;;0.70;1.00;;;;;;5147009;27;20263;-81
2022/02/27 03:36:49;;;;;;;10.40;7.50;;;0.70;1.00;;;;;;5138977;27;21112;-81
2022/02/27 03:39:16;;;;;;;11.18;7.70;;;0.70;1.00;;;;;;5135623;27;20218;-80
2022/02/27 03:41:43;;;;;;;14.07;9.40;;;0.70;1.00;;;;;;5114029;27;20219;-82
2022/02/27 03:44:09;;;;;;;12.73;8.48;;;0.80;1.00;;;;;;5111526;27;20296;-81
2022/02/27 03:46:37;;;;;;;12.95;8.20;;;0.70;1.00;;;;;;5111741;27;20242;-81
2022/02/27 03:49:05;;;;;;;12.15;8.25;;;0.70;1.00;;;;;;5119034;27;20223;-80
2022/02/27 03:51:32;;;;;;;13.90;9.60;;;0.80;1.00;;;;;;5112094;27;20233;-80
2022/02/27 03:53:59;;;;;;;13.63;8.50;;;0.70;1.00;;;;;;5117982;27;21127;-82
2022/02/27 03:56:25;;;;;;;10.85;7.95;;;0.70;1.00;;;;;;5108593;27;20226;-82
2022/02/27 03:58:52;;;;;;;13.50;8.63;;;0.70;1.00;;;;;;5115705;27;20302;-82
2022/02/27 04:01:19;;;;;;;16.00;9.30;;;0.70;1.00;;;;;;5113314;27;20223;-81
2022/02/27 04:03:47;;;;;;;12.48;9.30;;;0.70;1.00;;;;;;5113946;27;20269;-80
2022/02/27 04:06:14;;;;;;;12.27;8.65;;;0.60;1.00;;;;;;5114448;27;20307;-82
2022/02/27 04:08:41;;;;;;;11.48;8.10;;;0.60;1.00;;;;;;5105110;27;20288;-80
2022/02/27 04:11:08;;;;;;;14.02;8.45;;;0.50;1.00;;;;;;5129826;27;21181;-79
2022/02/27 04:13:35;;;;;;;12.82;9.32;;;0.50;1.00;;;;;;5127818;27;20251;-80
2022/02/27 04:16:02;;;;;;;11.98;8.27;;;0.50;1.00;;;;;;5125425;27;20221;-80
2022/02/27 04:18:28;;;;;;;11.25;6.97;;;0.50;1.00;;;;;;5120025;27;20231;-82
2022/02/27 04:20:57;;;;;;;14.45;9.00;;;0.50;1.00;;;;;;5118966;27;20337;-81
2022/02/27 04:23:24;;;;;;;14.40;8.75;;;0.50;1.00;;;;;;5100086;27;20223;-81
2022/02/27 04:25:50;;;;;;;14.15;9.27;;;0.50;1.00;;;;;;5115187;27;20330;-82
2022/02/27 04:28:18;;;;;;;12.07;9.40;;;0.50;1.00;;;;;;5119912;27;20226;-81
2022/02/27 04:30:45;;;;;;;15.50;10.55;;;0.50;1.00;;;;;;5114158;27;20229;-82
2022/02/27 04:33:11;;;;;;;13.32;8.43;;;0.50;1.00;;;;;;5114576;27;20298;-82
2022/02/27 04:35:38;;;;;;;16.38;9.73;;;0.40;1.00;;;;;;5115032;27;21720;-80
2022/02/27 04:38:06;;;;;;;11.13;9.52;;;0.40;1.00;;;;;;5115316;27;20281;-82
2022/02/27 04:40:33;;;;;;;16.92;9.38;;;0.40;1.00;;;;;;5112442;27;20229;-82
2022/02/27 04:43:01;;;;;;;12.70;9.38;;;0.40;1.00;;;;;;5119885;27;20272;-82
2022/02/27 04:45:28;;;;;;;13.73;10.20;;;0.30;1.00;;;;;;5115517;27;20226;-82
2022/02/27 04:47:54;;;;;;;20.05;9.27;;;0.40;1.00;;;;;;5114707;27;20284;-82
2022/02/27 04:50:21;;;;;;;12.70;8.98;;;0.40;1.00;;;;;;5124846;27;20274;-81
2022/02/27 04:52:48;;;;;;;11.90;9.55;;;0.40;1.00;;;;;;5149723;27;20215;-80
2022/02/27 04:55:16;;;;;;;13.50;9.77;;;0.40;1.00;;;;;;5131857;27;20233;-80
2022/02/27 04:57:43;;;;;;;14.15;9.52;;;0.40;1.00;;;;;;5138650;27;20282;-80
2022/02/27 05:00:11;;;;;;;16.25;9.50;;;0.40;1.00;;;;;;5137951;27;20263;-80
2022/02/27 05:02:38;;;;;;;15.82;9.23;;;0.40;1.00;;;;;;5144186;27;20208;-80
2022/02/27 05:05:05;;;;;;;12.68;8.25;;;0.40;1.00;;;;;;5134073;27;20227;-80
2022/02/27 05:07:32;;;;;;;11.30;9.15;;;0.40;1.00;;;;;;5138297;27;20214;-81
2022/02/27 05:10:00;;;;;;;15.73;8.30;;;0.40;1.00;;;;;;5118838;27;20220;-81
2022/02/27 05:12:28;;;;;;;12.68;8.93;;;0.40;1.00;;;;;;5111736;27;20219;-82
2022/02/27 05:14:55;;;;;;;12.32;9.23;;;0.40;1.00;;;;;;5113791;27;20255;-82
2022/02/27 05:17:22;;;;;;;12.32;8.43;;;0.40;1.00;;;;;;5117338;27;20227;-82
2022/02/27 05:19:48;;;;;;;13.00;9.40;;;0.30;1.00;;;;;;5113557;27;20311;-82
2022/02/27 05:22:15;;;;;;;11.93;9.50;;;0.30;1.00;;;;;;5115122;27;20247;-81
2022/02/27 05:24:41;;;;;;;11.70;9.38;;;0.20;1.00;;;;;;5116330;27;20306;-81
2022/02/27 05:27:08;;;;;;;11.77;8.30;;;0.20;1.00;;;;;;5112268;27;20247;-82
2022/02/27 05:29:36;;;;;;;13.63;8.73;;;0.20;1.00;;;;;;5115554;27;20744;-81
2022/02/27 05:32:03;;;;;;;13.70;8.70;;;0.10;1.00;;;;;;5112767;27;20298;-81
2022/02/27 05:34:30;;;;;;;12.48;9.35;;;0.20;1.00;;;;;;5116364;27;20310;-81
2022/02/27 05:36:57;;;;;;;13.32;8.93;;;0.20;1.00;;;;;;5118304;27;20212;-82
2022/02/27 05:39:24;;;;;;;17.42;8.40;;;0.20;1.00;;;;;;5110466;27;20471;-82
2022/02/27 05:41:50;;;;;;;16.02;10.02;;;0.10;1.00;;;;;;5114372;27;20278;-83
2022/02/27 05:44:17;;;;;;;11.70;8.20;;;0.20;1.00;;;;;;5116404;27;21276;-83
2022/02/27 05:46:45;;;;;;;13.43;9.48;;;0.20;1.00;;;;;;5115254;27;20218;-82
2022/02/27 05:49:12;;;;;;;15.27;10.75;;;0.20;1.00;;;;;;5118312;27;20295;-81
2022/02/27 05:51:39;;;;;;;13.55;10.88;;;0.20;1.00;;;;;;5118829;27;20231;-80
2022/02/27 05:54:05;;;;;;;13.73;10.27;;;0.20;1.00;;;;;;5117570;27;20215;-81
2022/02/27 05:56:32;;;;;;;14.10;9.88;;;0.30;1.00;;;;;;5127490;27;20242;-80
2022/02/27 05:58:59;;;;;;;15.20;9.73;;;0.30;1.00;;;;;;5103105;27;20293;-80
2022/02/27 06:01:26;;;;;;;15.15;9.80;;;0.30;1.00;;;;;;5121842;27;20286;-83
2022/02/27 06:03:54;;;;;;;13.27;10.93;;;0.30;1.00;;;;;;5143714;27;20207;-81
2022/02/27 06:06:20;;;;;;;15.73;10.77;;;0.30;1.00;;;;;;5140583;27;20788;-81
2022/02/27 06:08:47;;;;;;;13.82;10.20;;;0.30;1.00;;;;;;5114628;27;20934;-82
2022/02/27 06:11:14;;;;;;;13.77;9.02;;;0.30;1.00;;;;;;5119832;27;20235;-81
2022/02/27 06:13:40;;;;;;;15.35;9.55;;;0.20;1.00;;;;;;5118133;27;20245;-81
2022/02/27 06:16:07;;;;;;;12.85;9.52;;;0.30;1.00;;;;;;5114128;27;20310;-81
2022/02/27 06:18:33;;;;;;;16.40;10.50;;;0.30;1.00;;;;;;5116667;27;20746;-82
2022/02/27 06:21:01;;;;;;;13.95;10.45;;;0.30;1.00;;;;;;5112379;27;20304;-81
2022/02/27 06:23:28;;;;;;;13.73;10.65;;;0.40;1.00;;;;;;5115143;27;20254;-81
2022/02/27 06:25:55;;;;;;;16.05;10.80;;;0.40;1.00;;;;;;5111199;27;20220;-81
2022/02/27 06:28:21;;;;;;;14.07;11.20;;;0.40;1.00;;;;;;5116607;27;20242;-81
2022/02/27 06:30:48;;;;;;;17.15;11.10;;;0.40;1.00;;;;;;5117413;27;20236;-82
2022/02/27 06:33:15;;;;;;;12.77;10.77;;;0.50;1.00;;;;;;5121875;27;20352;-81
2022/02/27 06:35:42;;;;;;;13.68;10.68;;;0.50;1.00;;;;;;5115031;27;20776;-81
2022/02/27 06:38:10;;;;;;;14.13;10.88;;;0.60;1.00;;;;;;5114472;27;20321;-82
2022/02/27 06:40:37;;;;;;;17.25;11.15;;;0.70;1.00;;;;;;5114168;27;20255;-81
2022/02/27 06:43:05;;;;;;;12.63;10.15;;;0.70;1.00;;;;;;5119558;27;20297;-81
2022/02/27 06:45:31;;;;;;;13.27;10.18;;;0.80;1.00;;;;;;5116194;27;20218;-82
2022/02/27 06:47:58;;;;;;;14.07;10.90;;;0.80;1.00;;;;;;5122535;27;21205;-82
2022/02/27 06:50:26;;;;;;;12.18;9.68;;;0.90;1.00;;;;;;5125631;27;20237;-80
2022/02/27 06:52:54;;;;;;;15.05;11.00;;;1.00;1.00;;;;;;5145957;27;20195;-80
2022/02/27 06:55:22;;;;;;;16.20;11.70;;;1.10;1.00;;;;;;5134842;27;20239;-81
2022/02/27 06:57:50;;;;;;;17.48;11.88;;;1.10;1.00;;;;;;5091181;27;20250;-80
2022/02/27 07:00:18;;;;;;;18.40;11.50;;;1.20;1.00;;;;;;5105643;27;20219;-79
2022/02/27 07:02:46;;;;;;;15.05;11.30;;;1.30;1.00;;;;;;5112308;27;20306;-83
2022/02/27 07:05:13;;;;;;;17.98;12.23;;;1.40;1.00;;;;;;5115499;27;20228;-80
2022/02/27 07:07:40;;;;;;;19.08;12.30;;;1.40;1.00;;;;;;5118264;27;20276;-80
2022/02/27 07:10:08;;;;;;;15.82;11.80;;;1.50;1.00;;;;;;5110055;27;20771;-80
2022/02/27 07:12:38;;;;;;;16.67;11.77;;;1.50;1.00;;;;;;5111990;27;20228;-81
2022/02/27 07:15:06;;;;;;;15.38;12.13;;;1.50;1.00;;;;;;5112759;27;20805;-80
2022/02/27 07:17:34;;;;;;;12.38;10.77;;;1.50;1.00;;;;;;5123168;27;20848;-81
2022/02/27 07:20:00;;;;;;;14.52;11.80;;;1.60;1.00;;;;;;5111367;27;20294;-83
2022/02/27 07:22:27;;;;;;;12.75;10.25;;;1.70;1.00;;;;;;5122692;27;20299;-82
2022/02/27 07:25:04;;;;;;;14.48;11.50;;;1.80;1.00;;;;;;5118405;27;20222;-82
2022/02/27 07:27:31;;;;;;;17.73;11.32;;;1.90;1.00;;;;;;5123251;27;20241;-80
2022/02/27 07:30:00;;;;;;;14.65;11.45;;;2.00;1.00;;;;;;5137514;27;20242;-81
2022/02/27 07:32:26;;;;;;;14.20;10.95;;;2.00;1.00;;;;;;5140122;27;20227;-81
2022/02/27 07:34:53;;;;;;;15.85;11.25;;;2.00;1.00;;;;;;5141995;27;20792;-82
2022/02/27 07:37:20;;;;;;;18.83;12.65;;;2.10;1.00;;;;;;5124888;27;20211;-81
2022/02/27 07:39:47;;;;;;;16.30;11.00;;;2.10;1.00;;;;;;5121773;27;20218;-82
2022/02/27 07:42:13;;;;;;;18.30;11.80;;;2.20;1.00;;;;;;5124312;27;20204;-82
2022/02/27 07:44:40;;;;;;;12.90;10.88;;;2.10;1.00;;;;;;5137626;27;20228;-82
2022/02/27 07:47:08;;;;;;;18.00;11.68;;;2.10;1.00;;;;;;5133260;27;20238;-83
2022/02/27 07:49:35;;;;;;;17.95;12.60;;;2.10;1.00;;;;;;5101677;27;20797;-83
2022/02/27 07:52:02;;;;;;;21.17;13.40;;;2.10;1.00;;;;;;5113297;27;20230;-82
2022/02/27 07:54:28;;;;;;;19.08;13.43;;;2.10;1.00;;;;;;5111211;27;24238;-82
2022/02/27 07:56:56;;;;;;;20.25;12.68;;;2.10;1.00;;;;;;5098890;27;21045;-82
2022/02/27 07:59:23;;;;;;;24.15;15.40;;;2.20;1.00;;;;;;5113843;27;20226;-83
2022/02/27 08:01:50;;;;;;;21.08;14.05;;;2.20;1.00;;;;;;5111319;27;20215;-82
2022/02/27 08:04:18;;;;;;;23.65;14.30;;;2.10;1.00;;;;;;5115903;27;20310;-83
2022/02/27 08:06:44;;;;;;;20.27;15.13;;;2.10;1.00;;;;;;5116829;27;20214;-84
2022/02/27 08:09:12;;;;;;;22.58;15.10;;;2.10;1.00;;;;;;5118464;27;20219;-82
2022/02/27 08:11:39;;;;;;;23.42;15.77;;;2.20;1.00;;;;;;5112798;27;20226;-83
2022/02/27 08:14:06;;;;;;;22.77;15.75;;;2.30;1.00;;;;;;5116315;27;20215;-83
2022/02/27 08:16:33;;;;;;;24.02;16.27;;;2.50;1.00;;;;;;5115650;27;20854;-82
2022/02/27 08:19:00;;;;;;;24.98;18.48;;;2.50;1.00;;;;;;5115460;27;20246;-82
2022/02/27 08:21:28;;;;;;;26.45;17.70;;;2.80;1.00;;;;;;5111653;27;20288;-83
2022/02/27 08:23:56;;;;;;;29.02;19.77;;;2.90;1.00;;;;;;5095555;27;21104;-82
2022/02/27 08:26:23;;;;;;;26.38;19.42;;;2.90;1.00;;;;;;5112551;27;20238;-83
2022/02/27 08:28:50;;;;;;;25.58;17.75;;;3.00;1.00;;;;;;5110250;27;20257;-83
2022/02/27 08:31:17;;;;;;;25.73;18.67;;;3.00;1.00;;;;;;5111849;27;20233;-82
2022/02/27 08:33:45;;;;;;;27.67;17.60;;;3.10;1.00;;;;;;5113909;27;20722;-83
2022/02/27 08:36:15;;;;;;;27.08;17.88;;;3.20;1.00;;;;;;5115350;27;20281;-83
2022/02/27 08:38:47;;;;;;;25.58;17.00;;;3.30;1.00;;;;;;5122563;27;20644;-83
2022/02/27 08:41:14;;;;;;;25.27;17.38;;;3.50;1.00;;;;;;5140154;27;20211;-82
2022/02/27 08:43:41;;;;;;;26.42;17.52;;;3.50;1.00;;;;;;5143286;27;20267;-82
2022/02/27 08:46:08;;;;;;;23.45;16.85;;;3.50;1.00;;;;;;5130385;27;20219;-81
2022/02/27 08:48:35;;;;;;;25.35;18.00;;;3.40;1.00;;;;;;5118502;27;20233;-81
2022/02/27 08:51:02;;;;;;;25.17;16.33;;;3.40;1.00;;;;;;5119587;27;20229;-82
2022/02/27 08:53:28;;;;;;;29.95;17.23;;;3.50;1.00;;;;;;5122724;27;20276;-83
2022/02/27 08:55:56;;;;;;;27.92;16.98;;;3.60;1.00;;;;;;5115742;27;20290;-82
2022/02/27 08:58:23;;;;;;;24.90;16.73;;;3.70;1.00;;;;;;5125205;27;20234;-81
2022/02/27 09:00:50;;;;;;;25.25;17.98;;;3.70;1.00;;;;;;5108615;27;20227;-83
2022/02/27 09:03:16;;;;;;;26.73;17.95;;;3.70;1.00;;;;;;5118241;27;21006;-84
2022/02/27 09:05:44;;;;;;;26.67;18.65;;;3.70;1.00;;;;;;5122049;27;20257;-82
2022/02/27 09:08:11;;;;;;;28.40;18.25;;;3.70;1.00;;;;;;5122378;27;20745;-80
2022/02/27 09:10:37;;;;;;;26.75;18.45;;;3.90;1.00;;;;;;5119213;27;20287;-81
2022/02/27 09:13:06;;;;;;;27.83;18.80;;;3.90;1.00;;;;;;5120569;27;20243;-82
2022/02/27 09:15:32;;;;;;;29.27;20.08;;;4.00;1.00;;;;;;5120364;27;20733;-82
2022/02/27 09:17:59;;;;;;;23.98;17.17;;;4.10;1.00;;;;;;5117015;27;21608;-82
2022/02/27 09:20:26;;;;;;;22.77;15.95;;;4.10;1.00;;;;;;5121774;27;20226;-81
2022/02/27 09:22:53;;;;;;;24.90;18.17;;;4.10;1.00;;;;;;5117304;27;20223;-81
2022/02/27 09:25:20;;;;;;;28.55;18.17;;;3.90;1.00;;;;;;5124778;27;20226;-81
2022/02/27 09:27:46;;;;;;;25.50;18.67;;;3.90;1.00;;;;;;5108535;27;20242;-81
2022/02/27 09:30:15;;;;;;;28.00;19.08;;;4.00;1.00;;;;;;5127261;27;20253;-82
2022/02/27 09:32:42;;;;;;;28.63;19.30;;;4.10;1.00;;;;;;5128018;27;20244;-82
2022/02/27 09:35:10;;;;;;;28.67;18.10;;;4.20;1.00;;;;;;5137790;27;20215;-82
2022/02/27 09:37:38;;;;;;;26.70;17.83;;;4.40;1.00;;;;;;5124277;27;20384;-82
2022/02/27 09:40:06;;;;;;;26.30;18.25;;;4.60;1.00;;;;;;5112297;27;21651;-81
2022/02/27 09:42:34;;;;;;;23.60;17.88;;;4.70;1.00;;;;;;5115052;27;20365;-82
2022/02/27 09:45:07;;;;;;;26.40;20.13;;;4.60;1.00;;;;;;5120640;27;20240;-86
2022/02/27 09:47:38;;;;;;;26.20;17.80;;;4.40;1.00;;;;;;5126877;27;20223;-79
2022/02/27 09:50:06;;;;;;;23.45;16.85;;;4.50;1.00;;;;;;5137124;27;20276;-80
2022/02/27 09:52:33;;;;;;;28.55;21.08;;;4.50;1.00;;;;;;5127985;27;21223;-81
2022/02/27 09:55:10;;;;;;;26.27;20.65;;;4.50;1.00;;;;;;5116689;27;20280;-82
2022/02/27 09:57:46;;;;;;;29.40;21.33;;;4.50;1.00;;;;;;5116960;27;20217;-84
2022/02/27 10:00:17;;;;;;;28.00;18.45;;;4.40;1.00;;;;;;5110442;27;20322;-84
2022/02/27 10:03:09;;;;;;;28.80;19.73;;;4.60;1.00;;;;;;5122096;27;20227;-84
2022/02/27 10:05:38;;;;;;;30.95;19.63;;;4.70;1.00;;;;;;5117608;27;20223;-80
2022/02/27 10:08:09;;;;;;;28.85;18.70;;;4.60;1.00;;;;;;5105439;27;20227;-82
2022/02/27 10:14:21;;;;;;;;;;;;;;;;;;;;;
2022/02/27 10:17:30;;;;;;;23.30;16.95;;;4.70;1.00;;;;;;5068499;27;20226;-86
2022/02/27 10:26:46;;;;;;;21.80;16.70;;;5.20;1.00;;;;;;4950155;28;20310;-87
2022/02/27 10:33:24;;;;;;;21.08;17.17;;;5.70;1.00;;;;;;4436564;22;20217;-86
2022/02/27 10:39:17;;;;;;;;;;;;;;;;;;;;;
2022/02/27 10:42:41;;;;;;;27.75;19.30;;;6.20;1.00;;;;;;5026264;28;20230;-86
2022/02/27 10:45:32;;;;;;;28.88;19.15;;;6.10;1.00;;;;;;5005019;28;20276;-87
2022/02/27 10:48:17;;;;;;;28.08;19.33;;;6.00;1.00;;;;;;5016813;28;20365;-82
2022/02/27 10:50:49;;;;;;;27.45;20.02;;;6.10;1.00;;;;;;5089607;28;20219;-81
2022/02/27 10:53:59;;;;;;;27.95;20.02;;;6.50;1.00;;;;;;5093990;27;20272;-87
2022/02/27 10:57:29;;;;;;;30.33;20.38;;;6.80;1.00;;;;;;5074362;27;20233;-85
2022/02/27 11:00:29;;;;;;;29.63;20.45;;;6.90;1.00;;;;;;5077217;27;20233;-88
2022/02/27 11:03:11;;;;;;;28.63;19.42;;;7.20;1.00;;;;;;5073471;28;20230;-88
2022/02/27 11:05:43;;;;;;;28.88;21.63;;;7.40;1.00;;;;;;5067397;28;20791;-88
2022/02/27 11:08:12;;;;;;;29.20;20.15;;;7.50;1.00;;;;;;5049129;28;20320;-87
2022/02/27 11:10:43;;;;;;;30.30;22.45;;;7.70;1.00;;;;;;5291081;22;20995;-87
2022/02/27 11:13:13;;;;;;;29.35;20.75;;;7.80;1.00;;;;;;5090391;28;20225;-87
2022/02/27 11:15:51;;;;;;;31.02;21.77;;;7.90;1.00;;;;;;5106182;28;20752;-86
2022/02/27 11:18:19;;;;;;;31.65;21.73;;;7.90;1.00;;;;;;5095503;28;20225;-87
2022/02/27 11:20:46;;;;;;;30.73;21.48;;;7.90;1.00;;;;;;5092436;28;20232;-86
2022/02/27 11:23:43;;;;;;;;;;;;;;;;;;;;;
2022/02/27 11:26:11;;;;;;;28.73;21.52;;;8.00;1.00;;;;;;5091540;28;20225;-87
2022/02/27 11:28:43;;;;;;;30.63;21.75;;;8.10;1.00;;;;;;5107275;28;20743;-88
2022/02/27 11:31:17;;;;;;;31.58;22.75;;;8.30;1.00;;;;;;5084741;27;20224;-88
2022/02/27 11:34:12;;;;;;;32.72;21.98;;;8.50;1.00;;;;;;5093353;27;20320;-87
2022/02/27 11:36:39;;;;;;;45.45;32.42;;;8.50;1.00;;;;;;5104811;28;20294;-86
2022/02/27 11:40:27;;;;;;;25.97;20.60;;;8.30;1.00;;;;;;5100144;27;20258;-85
2022/02/27 11:42:00;;;;;;;32.08;22.33;;;8.00;1.00;;;;;;5100023;27;20463;-87
2022/02/27 11:44:34;;;;;;;28.00;21.35;;;7.90;1.00;;;;;;5091054;28;20220;-85
2022/02/27 11:47:07;;;;;;;27.20;21.45;;;8.10;1.00;;;;;;5117478;27;20200;-84
2022/02/27 11:49:44;;;;;;;27.03;20.67;;;7.90;1.00;;;;;;5106370;27;20233;-85
2022/02/27 11:52:12;;;;;;;27.38;22.33;;;7.70;1.00;;;;;;5089709;27;20450;-85
2022/02/27 11:54:46;;;;;;;30.40;22.27;;;7.70;1.00;;;;;;5078388;28;20267;-85
2022/02/27 11:57:23;;;;;;;27.13;21.42;;;7.80;1.00;;;;;;5098199;28;20232;-85
2022/02/27 12:00:01;;;;;;;28.48;22.58;;;7.40;1.00;;;;;;5096740;27;20239;-86
2022/02/27 12:02:42;;;;;;;25.38;21.10;;;6.80;1.00;;;;;;5100408;27;20342;-84
2022/02/27 12:05:38;;;;;;;30.42;21.52;;;6.70;1.00;;;;;;5098958;27;20219;-85
2022/02/27 12:08:10;;;;;;;30.98;20.88;;;6.80;1.00;;;;;;5110183;27;20227;-84
2022/02/27 12:10:45;;;;;;;32.55;22.60;;;6.90;1.00;;;;;;5095619;27;20314;-85
2022/02/27 12:13:25;;;;;;;32.75;22.50;;;7.10;1.00;;;;;;5083941;28;20231;-85
2022/02/27 12:16:09;;;;;;;34.88;22.25;;;7.20;1.00;;;;;;5094646;27;20242;-86
2022/02/27 12:18:50;;;;;;;33.33;23.90;;;7.10;1.00;;;;;;5087564;27;20228;-80
2022/02/27 12:21:21;;;;;;;32.83;23.80;;;7.00;1.00;;;;;;5090284;27;20228;-81
2022/02/27 12:23:49;;;;;;;33.67;25.17;;;6.90;1.00;;;;;;5100035;27;20255;-79
2022/02/27 12:26:48;;;;;;;35.88;26.75;;;6.90;1.00;;;;;;5102444;27;20220;-78
2022/02/27 12:29:31;;;;;;;29.85;23.80;;;6.80;1.00;;;;;;5004390;28;20231;-78
2022/02/27 12:32:05;;;;;;;31.73;23.95;;;6.80;1.00;;;;;;5063730;28;21159;-80
2022/02/27 12:34:35;;;;;;;31.77;25.10;;;6.80;1.00;;;;;;5093413;27;20225;-84
2022/02/27 12:37:14;;;;;;;33.10;25.95;;;6.70;1.00;;;;;;5097469;27;20220;-84
2022/02/27 12:39:46;;;;;;;32.13;24.63;;;6.80;1.00;;;;;;5101779;27;20222;-87
2022/02/27 12:42:22;;;;;;;33.20;25.92;;;6.80;1.00;;;;;;5127418;27;20211;-91
2022/02/27 12:44:56;;;;;;;33.95;25.15;;;7.00;1.00;;;;;;5112799;27;20235;-85
2022/02/27 12:47:33;;;;;;;31.63;23.88;;;6.90;1.00;;;;;;5102592;27;20312;-87
2022/02/27 12:50:18;;;;;;;50.10;38.97;;;6.90;1.00;;;;;;5088838;27;20228;-85
2022/02/27 12:52:47;;;;;;;29.88;23.25;;;6.70;1.00;;;;;;5094516;28;20216;-84
2022/02/27 12:55:17;;;;;;;30.52;23.80;;;6.50;1.00;;;;;;5096209;27;20363;-87
2022/02/27 12:57:51;;;;;;;31.88;23.50;;;6.40;1.00;;;;;;5099706;27;20230;-85
2022/02/27 13:00:53;;;;;;;33.45;25.05;;;6.40;1.00;;;;;;5095518;27;20438;-86
2022/02/27 13:03:29;;;;;;;31.30;23.55;;;6.30;1.00;;;;;;5091196;27;20239;-87
2022/02/27 13:06:02;;;;;;;25.73;22.05;;;6.20;1.00;;;;;;5093218;27;20212;-87
2022/02/27 13:08:50;;;;;;;31.70;22.75;;;6.20;1.00;;;;;;5088189;27;20211;-87
2022/02/27 13:14:27;;;;;;;29.30;21.10;;;6.20;1.00;;;;;;5080578;27;20224;-87
2022/02/27 13:17:21;;;;;;;24.15;21.20;;;6.10;1.00;;;;;;5101289;27;20223;-87
2022/02/27 13:20:23;;;;;;;28.00;22.83;;;6.10;1.00;;;;;;5096083;27;20227;-86
2022/02/27 13:22:57;;;;;;;26.25;21.35;;;6.00;1.00;;;;;;5076732;28;20973;-87
2022/02/27 13:29:03;;;;;;;29.55;22.15;;;6.10;1.00;;;;;;4999661;28;20268;-88
2022/02/27 13:32:06;;;;;;;26.52;20.40;;;6.30;1.00;;;;;;5141019;22;20279;-86
2022/02/27 13:34:53;;;;;;;30.70;22.30;;;6.30;1.00;;;;;;5025823;28;20234;-88